Time;durP1;ratioP1;P1;durP2;ratioP2;P2;SDS_P1;SDS_P2;PMS_P1;PMS_P2;Temp;Humidity;BMP_temperature;BMP_pressure;BME280_temperature;BME280_humidity;BME280_pressure;Samples;Min_cycle;Max_cycle;Signal;HPM_P1;HPM_P2
2019/09/26 00:00:08;;;;;;;3.7;1.6;;;;;;;14.14;97.83105;94822.14;;;;
2019/09/26 00:01:24;;;;;;;2.6;1.6;;;;;;;14.14;97.68066;94818.06;;;;
2019/09/26 00:02:25;;;;;;;2.6;1.6;;;;;;;14.14;97.68066;94818.06;;;;
2019/09/26 00:03:26;;;;;;;2.6;1.6;;;;;;;14.14;97.68066;94818.06;;;;
2019/09/26 00:04:28;;;;;;;2.6;1.6;;;;;;;14.14;97.68066;94818.06;;;;
2019/09/26 00:05:29;;;;;;;2.6;1.6;;;;;;;14.14;97.68066;94818.06;;;;
2019/09/26 00:06:30;;;;;;;2.6;1.6;;;;;;;14.14;97.68066;94818.06;;;;
2019/09/26 00:07:31;;;;;;;2.6;1.6;;;;;;;14.14;97.68066;94818.06;;;;
2019/09/26 00:08:32;;;;;;;2.6;1.6;;;;;;;14.14;97.68066;94818.06;;;;
2019/09/26 00:09:34;;;;;;;2.6;1.6;;;;;;;14.14;97.68066;94818.06;;;;
2019/09/26 00:10:35;;;;;;;2.6;1.6;;;;;;;14.14;97.68066;94818.06;;;;
2019/09/26 00:11:39;;;;;;;3.9;2;;;;;;;13.82;96.76367;94821.49;;;;
2019/09/26 00:12:41;;;;;;;3.9;2;;;;;;;13.82;96.76367;94821.49;;;;
2019/09/26 00:13:42;;;;;;;3.7;1.6;;;;;;;13.82;97.63086;94823.26;;;;
2019/09/26 00:14:43;;;;;;;3.7;1.6;;;;;;;13.82;97.63086;94823.26;;;;
2019/09/26 00:15:44;;;;;;;3.7;1.6;;;;;;;13.82;97.63086;94823.26;;;;
2019/09/26 00:16:46;;;;;;;2.7;1.7;;;;;;;13.86;97.85547;94818.41;;;;
2019/09/26 00:17:47;;;;;;;2.7;1.7;;;;;;;13.86;97.85547;94818.41;;;;
2019/09/26 00:18:48;;;;;;;3.6;1.6;;;;;;;13.91;97.9541;94821.12;;;;
2019/09/26 00:19:49;;;;;;;3.6;1.6;;;;;;;13.91;97.9541;94821.12;;;;
2019/09/26 00:20:50;;;;;;;3.6;1.6;;;;;;;13.91;97.9541;94821.12;;;;
2019/09/26 00:21:54;;;;;;;2.15;1.65;;;;;;;13.95;98.03516;94823.17;;;;
2019/09/26 00:22:55;;;;;;;2.15;1.65;;;;;;;13.95;98.03516;94823.17;;;;
2019/09/26 00:23:56;;;;;;;2.15;1.65;;;;;;;13.95;98.03516;94823.17;;;;
2019/09/26 00:24:57;;;;;;;2.099999;1.6;;;;;;;13.97;98.00781;94826.44;;;;
2019/09/26 00:25:58;;;;;;;2.099999;1.6;;;;;;;13.97;98.00781;94826.44;;;;
2019/09/26 00:27:00;;;;;;;2.099999;1.6;;;;;;;13.97;98.00781;94826.44;;;;
2019/09/26 00:28:01;;;;;;;2.099999;1.6;;;;;;;13.97;98.00781;94826.44;;;;
2019/09/26 00:29:03;;;;;;;2.099999;1.6;;;;;;;13.97;98.00781;94826.44;;;;
2019/09/26 00:30:04;;;;;;;2.099999;1.6;;;;;;;13.97;98.00781;94826.44;;;;
2019/09/26 00:31:07;;;;;;;2.099999;1.6;;;;;;;13.97;98.00781;94826.44;;;;
2019/09/26 00:32:10;;;;;;;2.099999;1.6;;;;;;;13.97;98.00781;94826.44;;;;
2019/09/26 00:33:11;;;;;;;2.099999;1.6;;;;;;;13.97;98.00781;94826.44;;;;
2019/09/26 00:34:13;;;;;;;2.099999;1.6;;;;;;;13.97;98.00781;94826.44;;;;
2019/09/26 00:35:14;;;;;;;2.4;1.7;;;;;;;13.72;97.03223;94821.35;;;;
2019/09/26 00:36:15;;;;;;;2.4;1.7;;;;;;;13.72;97.03223;94821.35;;;;
2019/09/26 00:37:17;;;;;;;2.4;1.7;;;;;;;13.72;97.03223;94821.35;;;;
2019/09/26 00:38:18;;;;;;;3.7;1.65;;;;;;;13.73;97.7627;94829.35;;;;
2019/09/26 00:39:19;;;;;;;3.7;1.65;;;;;;;13.73;97.7627;94829.35;;;;
2019/09/26 00:40:20;;;;;;;3.7;1.65;;;;;;;13.73;97.7627;94829.35;;;;
2019/09/26 00:41:37;;;;;;;3.7;1.65;;;;;;;13.73;97.7627;94829.35;;;;
2019/09/26 00:42:38;;;;;;;3.7;1.65;;;;;;;13.73;97.7627;94829.35;;;;
2019/09/26 00:43:39;;;;;;;3.7;1.65;;;;;;;13.73;97.7627;94829.35;;;;
2019/09/26 00:44:41;;;;;;;3.7;1.65;;;;;;;13.73;97.7627;94829.35;;;;
2019/09/26 00:45:42;;;;;;;3.7;1.65;;;;;;;13.73;97.7627;94829.35;;;;
2019/09/26 00:46:43;;;;;;;3.7;1.65;;;;;;;13.73;97.7627;94829.35;;;;
2019/09/26 00:47:44;;;;;;;3.7;1.65;;;;;;;13.73;97.7627;94829.35;;;;
2019/09/26 00:48:46;;;;;;;1.9;1.6;;;;;;;13.56;96.91211;94821.97;;;;
2019/09/26 00:49:47;;;;;;;1.9;1.6;;;;;;;13.56;96.91211;94821.97;;;;
2019/09/26 00:50:48;;;;;;;2.3;1.65;;;;;;;13.59;97.91504;94827.67;;;;
2019/09/26 00:51:50;;;;;;;2.3;1.65;;;;;;;13.59;97.91504;94827.67;;;;
2019/09/26 00:52:51;;;;;;;2.3;1.65;;;;;;;13.59;97.91504;94827.67;;;;
2019/09/26 00:53:52;;;;;;;2.45;1.6;;;;;;;13.68;98.2334;94825.67;;;;
2019/09/26 00:54:54;;;;;;;2.45;1.6;;;;;;;13.68;98.2334;94825.67;;;;
2019/09/26 00:55:55;;;;;;;3.95;1.8;;;;;;;13.77;98.3916;94830.03;;;;
2019/09/26 00:56:56;;;;;;;3.95;1.8;;;;;;;13.77;98.3916;94830.03;;;;
2019/09/26 00:57:57;;;;;;;3.95;1.8;;;;;;;13.77;98.3916;94830.03;;;;
2019/09/26 00:58:58;;;;;;;2.45;1.7;;;;;;;13.84;98.2666;94822.05;;;;
2019/09/26 01:00:00;;;;;;;2.45;1.7;;;;;;;13.84;98.2666;94822.05;;;;
2019/09/26 01:01:01;;;;;;;2.45;1.7;;;;;;;13.84;98.2666;94822.05;;;;
2019/09/26 01:02:21;;;;;;;2.65;1.6;;;;;;;13.87;98.27734;94830.88;;;;
2019/09/26 01:03:23;;;;;;;2.65;1.6;;;;;;;13.87;98.27734;94830.88;;;;
2019/09/26 01:04:25;;;;;;;2.65;1.6;;;;;;;13.87;98.27734;94830.88;;;;
2019/09/26 01:05:28;;;;;;;2.65;1.6;;;;;;;13.87;98.27734;94830.88;;;;
2019/09/26 01:06:29;;;;;;;2.65;1.6;;;;;;;13.87;98.27734;94830.88;;;;
2019/09/26 01:07:30;;;;;;;2.65;1.6;;;;;;;13.87;98.27734;94830.88;;;;
2019/09/26 01:08:32;;;;;;;2.65;1.6;;;;;;;13.87;98.27734;94830.88;;;;
2019/09/26 01:09:33;;;;;;;2.65;1.6;;;;;;;13.87;98.27734;94830.88;;;;
2019/09/26 01:10:34;;;;;;;2.65;1.6;;;;;;;13.87;98.27734;94830.88;;;;
2019/09/26 01:11:35;;;;;;;2.65;1.6;;;;;;;13.87;98.27734;94830.88;;;;
2019/09/26 01:12:37;;;;;;;2.3;1.6;;;;;;;13.48;97.27832;94827.48;;;;
2019/09/26 01:13:38;;;;;;;2.3;1.6;;;;;;;13.48;97.27832;94827.48;;;;
2019/09/26 01:14:39;;;;;;;4.05;1.8;;;;;;;13.47;98.25195;94829.77;;;;
2019/09/26 01:15:40;;;;;;;4.05;1.8;;;;;;;13.47;98.25195;94829.77;;;;
2019/09/26 01:16:42;;;;;;;4.05;1.8;;;;;;;13.47;98.25195;94829.77;;;;
2019/09/26 01:17:43;;;;;;;4.05;1.8;;;;;;;13.47;98.25195;94829.77;;;;
2019/09/26 01:18:44;;;;;;;4.05;1.8;;;;;;;13.47;98.25195;94829.77;;;;
2019/09/26 01:19:45;;;;;;;4.05;1.8;;;;;;;13.47;98.25195;94829.77;;;;
2019/09/26 01:20:47;;;;;;;4.05;1.8;;;;;;;13.47;98.25195;94829.77;;;;
2019/09/26 01:21:48;;;;;;;4.05;1.8;;;;;;;13.47;98.25195;94829.77;;;;
2019/09/26 01:22:49;;;;;;;4.05;1.8;;;;;;;13.47;98.25195;94829.77;;;;
2019/09/26 01:23:50;;;;;;;4.05;1.8;;;;;;;13.47;98.25195;94829.77;;;;
2019/09/26 01:24:52;;;;;;;4.05;1.8;;;;;;;13.47;98.25195;94829.77;;;;
2019/09/26 01:25:53;;;;;;;2.5;1.7;;;;;;;13.32;97.48926;94828.49;;;;
2019/09/26 01:26:54;;;;;;;2.5;1.7;;;;;;;13.32;97.48926;94828.49;;;;
2019/09/26 01:27:55;;;;;;;2.5;1.8;;;;;;;13.32;98.38672;94828.9;;;;
2019/09/26 01:28:56;;;;;;;2.5;1.8;;;;;;;13.32;98.38672;94828.9;;;;
2019/09/26 01:29:58;;;;;;;2.5;1.8;;;;;;;13.32;98.38672;94828.9;;;;
2019/09/26 01:30:59;;;;;;;2.5;1.8;;;;;;;13.32;98.38672;94828.9;;;;
2019/09/26 01:32:00;;;;;;;2.5;1.8;;;;;;;13.32;98.38672;94828.9;;;;
2019/09/26 01:33:01;;;;;;;2.5;1.8;;;;;;;13.32;98.38672;94828.9;;;;
2019/09/26 01:34:03;;;;;;;2.5;1.8;;;;;;;13.32;98.38672;94828.9;;;;
2019/09/26 01:35:05;;;;;;;2.5;1.8;;;;;;;13.32;98.38672;94828.9;;;;
2019/09/26 01:36:06;;;;;;;2.5;1.8;;;;;;;13.32;98.38672;94828.9;;;;
2019/09/26 01:37:07;;;;;;;2.5;1.8;;;;;;;13.32;98.38672;94828.9;;;;
2019/09/26 01:38:09;;;;;;;2.5;1.8;;;;;;;13.32;98.38672;94828.9;;;;
2019/09/26 01:39:10;;;;;;;3.45;2.1;;;;;;;13.13;97.60742;94835.44;;;;
2019/09/26 01:40:15;;;;;;;3.45;2.1;;;;;;;13.13;97.60742;94835.44;;;;
2019/09/26 01:41:17;;;;;;;2.55;1.7;;;;;;;13.14;98.48828;94836.53;;;;
2019/09/26 01:42:18;;;;;;;2.55;1.7;;;;;;;13.14;98.48828;94836.53;;;;
2019/09/26 01:43:19;;;;;;;2.55;1.7;;;;;;;13.14;98.48828;94836.53;;;;
2019/09/26 01:44:21;;;;;;;2.55;1.7;;;;;;;13.14;98.48828;94836.53;;;;
2019/09/26 01:45:22;;;;;;;2.55;1.7;;;;;;;13.14;98.48828;94836.53;;;;
2019/09/26 01:46:25;;;;;;;2.55;1.7;;;;;;;13.14;98.48828;94836.53;;;;
2019/09/26 01:47:27;;;;;;;2.55;1.7;;;;;;;13.14;98.48828;94836.53;;;;
2019/09/26 01:48:28;;;;;;;2.55;1.7;;;;;;;13.14;98.48828;94836.53;;;;
2019/09/26 01:49:29;;;;;;;2.55;1.7;;;;;;;13.14;98.48828;94836.53;;;;
2019/09/26 01:50:30;;;;;;;2.55;1.7;;;;;;;13.14;98.48828;94836.53;;;;
2019/09/26 01:51:33;;;;;;;2.55;1.7;;;;;;;13.14;98.48828;94836.53;;;;
2019/09/26 01:52:34;;;;;;;3.1;2.05;;;;;;;12.91;97.62402;94843.67;;;;
2019/09/26 01:53:35;;;;;;;3.1;2.05;;;;;;;12.91;97.62402;94843.67;;;;
2019/09/26 01:54:38;;;;;;;3;1.75;;;;;;;12.91;98.78613;94843.27;;;;
2019/09/26 01:55:39;;;;;;;3;1.75;;;;;;;12.91;98.78613;94843.27;;;;
2019/09/26 01:56:41;;;;;;;3;1.75;;;;;;;12.91;98.78613;94843.27;;;;
2019/09/26 01:57:42;;;;;;;3;1.75;;;;;;;12.91;98.78613;94843.27;;;;
2019/09/26 01:58:48;;;;;;;3;1.75;;;;;;;12.91;98.78613;94843.27;;;;
2019/09/26 01:59:55;;;;;;;3;1.75;;;;;;;12.91;98.78613;94843.27;;;;
2019/09/26 02:02:06;;;;;;;3;1.75;;;;;;;12.91;98.78613;94843.27;;;;
2019/09/26 02:03:08;;;;;;;3;1.75;;;;;;;12.91;98.78613;94843.27;;;;
2019/09/26 02:04:17;;;;;;;3;1.75;;;;;;;12.91;98.78613;94843.27;;;;
2019/09/26 02:05:19;;;;;;;1.7;1.6;;;;;;;12.77;98.1582;94841.56;;;;
2019/09/26 02:06:23;;;;;;;1.7;1.6;;;;;;;12.77;98.1582;94841.56;;;;
2019/09/26 02:07:25;;;;;;;1.7;1.6;;;;;;;12.77;98.1582;94841.56;;;;
2019/09/26 02:08:26;;;;;;;3.05;1.8;;;;;;;12.82;99.24902;94848.36;;;;
2019/09/26 02:09:27;;;;;;;3.05;1.8;;;;;;;12.82;99.24902;94848.36;;;;
2019/09/26 02:10:28;;;;;;;3.05;1.8;;;;;;;12.82;99.24902;94848.36;;;;
2019/09/26 02:11:31;;;;;;;3.05;1.8;;;;;;;12.82;99.24902;94848.36;;;;
2019/09/26 02:12:33;;;;;;;3.05;1.8;;;;;;;12.82;99.24902;94848.36;;;;
2019/09/26 02:13:34;;;;;;;3.05;1.8;;;;;;;12.82;99.24902;94848.36;;;;
2019/09/26 02:14:35;;;;;;;3.05;1.8;;;;;;;12.82;99.24902;94848.36;;;;
2019/09/26 02:15:37;;;;;;;3.05;1.8;;;;;;;12.82;99.24902;94848.36;;;;
2019/09/26 02:16:39;;;;;;;3.05;1.8;;;;;;;12.82;99.24902;94848.36;;;;
2019/09/26 02:17:41;;;;;;;3.05;1.8;;;;;;;12.82;99.24902;94848.36;;;;
2019/09/26 02:18:42;;;;;;;3.299999;2.05;;;;;;;12.84;98.57031;94846.21;;;;
2019/09/26 02:19:43;;;;;;;3.299999;2.05;;;;;;;12.84;98.57031;94846.21;;;;
2019/09/26 02:20:44;;;;;;;3.299999;2.05;;;;;;;12.84;98.57031;94846.21;;;;
2019/09/26 02:21:49;;;;;;;2.85;1.9;;;;;;;12.92;99.53711;94851.12;;;;
2019/09/26 02:22:50;;;;;;;2.85;1.9;;;;;;;12.92;99.53711;94851.12;;;;
2019/09/26 02:23:52;;;;;;;2.85;1.9;;;;;;;12.92;99.53711;94851.12;;;;
2019/09/26 02:24:53;;;;;;;2.85;1.9;;;;;;;12.92;99.53711;94851.12;;;;
2019/09/26 02:25:54;;;;;;;2.85;1.9;;;;;;;12.92;99.53711;94851.12;;;;
2019/09/26 02:26:55;;;;;;;2.85;1.9;;;;;;;12.92;99.53711;94851.12;;;;
2019/09/26 02:27:57;;;;;;;2.85;1.9;;;;;;;12.92;99.53711;94851.12;;;;
2019/09/26 02:28:58;;;;;;;2.85;1.9;;;;;;;12.92;99.53711;94851.12;;;;
2019/09/26 02:29:59;;;;;;;2.85;1.9;;;;;;;12.92;99.53711;94851.12;;;;
2019/09/26 02:31:00;;;;;;;2.85;1.9;;;;;;;12.92;99.53711;94851.12;;;;
2019/09/26 02:32:09;;;;;;;3.55;1.8;;;;;;;13;98.54199;94856.08;;;;
2019/09/26 02:33:11;;;;;;;3.55;1.8;;;;;;;13;98.54199;94856.08;;;;
2019/09/26 02:34:12;;;;;;;2.55;1.6;;;;;;;13.08;99.3916;94863.31;;;;
2019/09/26 02:35:13;;;;;;;2.55;1.6;;;;;;;13.08;99.3916;94863.31;;;;
2019/09/26 02:36:15;;;;;;;2.55;1.6;;;;;;;13.08;99.3916;94863.31;;;;
2019/09/26 02:37:16;;;;;;;2.55;1.6;;;;;;;13.08;99.3916;94863.31;;;;
2019/09/26 02:38:18;;;;;;;2.55;1.6;;;;;;;13.08;99.3916;94863.31;;;;
2019/09/26 02:39:19;;;;;;;2.55;1.6;;;;;;;13.08;99.3916;94863.31;;;;
2019/09/26 02:40:20;;;;;;;2.55;1.6;;;;;;;13.08;99.3916;94863.31;;;;
2019/09/26 02:41:38;;;;;;;2.55;1.6;;;;;;;13.08;99.3916;94863.31;;;;
2019/09/26 02:42:39;;;;;;;2.55;1.6;;;;;;;13.08;99.3916;94863.31;;;;
2019/09/26 02:43:40;;;;;;;2.55;1.6;;;;;;;13.08;99.3916;94863.31;;;;
2019/09/26 02:44:42;;;;;;;2.1;1.5;;;;;;;13.13;98.37695;94870.53;;;;
2019/09/26 02:45:43;;;;;;;2.1;1.5;;;;;;;13.13;98.37695;94870.53;;;;
2019/09/26 02:46:46;;;;;;;2.1;1.5;;;;;;;13.13;98.37695;94870.53;;;;
2019/09/26 02:47:47;;;;;;;3.3;1.45;;;;;;;13.2;99.25977;94868.03;;;;
2019/09/26 02:48:48;;;;;;;3.3;1.45;;;;;;;13.2;99.25977;94868.03;;;;
2019/09/26 02:49:50;;;;;;;3.3;1.45;;;;;;;13.2;99.25977;94868.03;;;;
2019/09/26 02:50:51;;;;;;;3.3;1.45;;;;;;;13.2;99.25977;94868.03;;;;
2019/09/26 02:52:06;;;;;;;3.3;1.45;;;;;;;13.2;99.25977;94868.03;;;;
2019/09/26 02:53:08;;;;;;;3.3;1.45;;;;;;;13.2;99.25977;94868.03;;;;
2019/09/26 02:54:09;;;;;;;3.3;1.45;;;;;;;13.2;99.25977;94868.03;;;;
2019/09/26 02:55:10;;;;;;;3.3;1.45;;;;;;;13.2;99.25977;94868.03;;;;
2019/09/26 02:56:12;;;;;;;3.3;1.45;;;;;;;13.2;99.25977;94868.03;;;;
2019/09/26 02:57:13;;;;;;;3.3;1.45;;;;;;;13.2;99.25977;94868.03;;;;
2019/09/26 02:58:14;;;;;;;2;1.5;;;;;;;13.22;98.37695;94865.88;;;;
2019/09/26 02:59:15;;;;;;;2;1.5;;;;;;;13.22;98.37695;94865.88;;;;
2019/09/26 03:00:17;;;;;;;2;1.5;;;;;;;13.22;98.37695;94865.88;;;;
2019/09/26 03:01:18;;;;;;;1.85;1.55;;;;;;;13.27;99.16699;94869.96;;;;
2019/09/26 03:02:20;;;;;;;1.85;1.55;;;;;;;13.27;99.16699;94869.96;;;;
2019/09/26 03:03:21;;;;;;;1.85;1.55;;;;;;;13.27;99.16699;94869.96;;;;
2019/09/26 03:04:22;;;;;;;1.85;1.55;;;;;;;13.27;99.16699;94869.96;;;;
2019/09/26 03:05:24;;;;;;;1.85;1.55;;;;;;;13.27;99.16699;94869.96;;;;
2019/09/26 03:06:25;;;;;;;1.85;1.55;;;;;;;13.27;99.16699;94869.96;;;;
2019/09/26 03:07:26;;;;;;;1.85;1.55;;;;;;;13.27;99.16699;94869.96;;;;
2019/09/26 03:08:27;;;;;;;1.85;1.55;;;;;;;13.27;99.16699;94869.96;;;;
2019/09/26 03:09:28;;;;;;;1.85;1.55;;;;;;;13.27;99.16699;94869.96;;;;
2019/09/26 03:10:29;;;;;;;1.85;1.55;;;;;;;13.27;99.16699;94869.96;;;;
2019/09/26 03:11:45;;;;;;;1.95;1.4;;;;;;;13.27;98.37402;94879.99;;;;
2019/09/26 03:12:46;;;;;;;1.95;1.4;;;;;;;13.27;98.37402;94879.99;;;;
2019/09/26 03:13:47;;;;;;;1.95;1.4;;;;;;;13.27;98.37402;94879.99;;;;
2019/09/26 03:14:48;;;;;;;1.4;1.3;;;;;;;13.31;99.14355;94878.8;;;;
2019/09/26 03:15:50;;;;;;;1.4;1.3;;;;;;;13.31;99.14355;94878.8;;;;
2019/09/26 03:16:51;;;;;;;1.4;1.3;;;;;;;13.31;99.14355;94878.8;;;;
2019/09/26 03:17:52;;;;;;;1.4;1.3;;;;;;;13.31;99.14355;94878.8;;;;
2019/09/26 03:18:53;;;;;;;1.4;1.3;;;;;;;13.31;99.14355;94878.8;;;;
2019/09/26 03:19:54;;;;;;;1.4;1.3;;;;;;;13.31;99.14355;94878.8;;;;
2019/09/26 03:20:55;;;;;;;1.4;1.3;;;;;;;13.31;99.14355;94878.8;;;;
2019/09/26 03:22:01;;;;;;;1.4;1.3;;;;;;;13.31;99.14355;94878.8;;;;
2019/09/26 03:23:03;;;;;;;1.4;1.3;;;;;;;13.31;99.14355;94878.8;;;;
2019/09/26 03:24:04;;;;;;;1.4;1.3;;;;;;;13.31;99.14355;94878.8;;;;
2019/09/26 03:25:06;;;;;;;1.9;1.4;;;;;;;13.27;98.35254;94879.99;;;;
2019/09/26 03:26:07;;;;;;;1.9;1.4;;;;;;;13.27;98.35254;94879.99;;;;
2019/09/26 03:27:10;;;;;;;2.15;1.5;;;;;;;13.31;99.1543;94878.39;;;;
2019/09/26 03:28:11;;;;;;;2.15;1.5;;;;;;;13.31;99.1543;94878.39;;;;
2019/09/26 03:29:12;;;;;;;2.15;1.5;;;;;;;13.31;99.1543;94878.39;;;;
2019/09/26 03:30:13;;;;;;;2.15;1.5;;;;;;;13.31;99.1543;94878.39;;;;
2019/09/26 03:31:24;;;;;;;2.15;1.5;;;;;;;13.31;99.1543;94878.39;;;;
2019/09/26 03:32:26;;;;;;;2.15;1.5;;;;;;;13.31;99.1543;94878.39;;;;
2019/09/26 03:33:27;;;;;;;2.15;1.5;;;;;;;13.31;99.1543;94878.39;;;;
2019/09/26 03:34:28;;;;;;;2.15;1.5;;;;;;;13.31;99.1543;94878.39;;;;
2019/09/26 03:35:29;;;;;;;2.15;1.5;;;;;;;13.31;99.1543;94878.39;;;;
2019/09/26 03:36:30;;;;;;;2.15;1.5;;;;;;;13.31;99.1543;94878.39;;;;
2019/09/26 03:37:32;;;;;;;2.15;1.5;;;;;;;13.31;99.1543;94878.39;;;;
2019/09/26 03:38:33;;;;;;;2.85;1.3;;;;;;;13.21;98.42773;94889.03;;;;
2019/09/26 03:39:34;;;;;;;2.85;1.3;;;;;;;13.21;98.42773;94889.03;;;;
2019/09/26 03:40:35;;;;;;;1.9;1.4;;;;;;;13.25;99.34473;94895.15;;;;
2019/09/26 03:41:37;;;;;;;1.9;1.4;;;;;;;13.25;99.34473;94895.15;;;;
2019/09/26 03:42:39;;;;;;;1.9;1.4;;;;;;;13.25;99.34473;94895.15;;;;
2019/09/26 03:43:40;;;;;;;1.9;1.4;;;;;;;13.25;99.34473;94895.15;;;;
2019/09/26 03:44:41;;;;;;;1.9;1.4;;;;;;;13.25;99.34473;94895.15;;;;
2019/09/26 03:45:42;;;;;;;1.9;1.4;;;;;;;13.25;99.34473;94895.15;;;;
2019/09/26 03:46:43;;;;;;;1.9;1.4;;;;;;;13.25;99.34473;94895.15;;;;
2019/09/26 03:47:45;;;;;;;1.9;1.4;;;;;;;13.25;99.34473;94895.15;;;;
2019/09/26 03:48:46;;;;;;;1.9;1.4;;;;;;;13.25;99.34473;94895.15;;;;
2019/09/26 03:49:47;;;;;;;1.9;1.4;;;;;;;13.25;99.34473;94895.15;;;;
2019/09/26 03:50:48;;;;;;;1.9;1.4;;;;;;;13.25;99.34473;94895.15;;;;
2019/09/26 03:52:05;;;;;;;2.15;1.5;;;;;;;13.2;98.68262;94897.85;;;;
2019/09/26 03:53:18;;;;;;;2.15;1.5;;;;;;;13.2;98.68262;94897.85;;;;
2019/09/26 03:54:20;;;;;;;1.55;1.3;;;;;;;13.25;99.69727;94897.45;;;;
2019/09/26 03:55:21;;;;;;;1.55;1.3;;;;;;;13.25;99.69727;94897.45;;;;
2019/09/26 03:56:22;;;;;;;1.55;1.3;;;;;;;13.25;99.69727;94897.45;;;;
2019/09/26 03:57:23;;;;;;;1.55;1.3;;;;;;;13.25;99.69727;94897.45;;;;
2019/09/26 03:58:25;;;;;;;1.55;1.3;;;;;;;13.25;99.69727;94897.45;;;;
2019/09/26 03:59:27;;;;;;;1.55;1.3;;;;;;;13.25;99.69727;94897.45;;;;
2019/09/26 04:00:28;;;;;;;1.55;1.3;;;;;;;13.25;99.69727;94897.45;;;;
2019/09/26 04:01:30;;;;;;;1.55;1.3;;;;;;;13.25;99.69727;94897.45;;;;
2019/09/26 04:02:31;;;;;;;1.55;1.3;;;;;;;13.25;99.69727;94897.45;;;;
2019/09/26 04:03:32;;;;;;;1.55;1.3;;;;;;;13.25;99.69727;94897.45;;;;
2019/09/26 04:04:33;;;;;;;1.5;1.4;;;;;;;13.2;98.97949;94902.86;;;;
2019/09/26 04:05:35;;;;;;;1.5;1.4;;;;;;;13.2;98.97949;94902.86;;;;
2019/09/26 04:06:36;;;;;;;1.5;1.4;;;;;;;13.2;98.97949;94902.86;;;;
2019/09/26 04:07:37;;;;;;;1.5;1.4;;;;;;;13.2;98.97949;94902.86;;;;
2019/09/26 04:08:38;;;;;;;1.5;1.4;;;;;;;13.2;98.97949;94902.86;;;;
2019/09/26 04:09:40;;;;;;;1.5;1.4;;;;;;;13.2;98.97949;94902.86;;;;
2019/09/26 04:10:41;;;;;;;1.5;1.4;;;;;;;13.2;98.97949;94902.86;;;;
2019/09/26 04:11:42;;;;;;;1.5;1.4;;;;;;;13.2;98.97949;94902.86;;;;
2019/09/26 04:12:43;;;;;;;1.5;1.4;;;;;;;13.2;98.97949;94902.86;;;;
2019/09/26 04:13:44;;;;;;;1.5;1.4;;;;;;;13.2;98.97949;94902.86;;;;
2019/09/26 04:14:46;;;;;;;1.5;1.4;;;;;;;13.2;98.97949;94902.86;;;;
2019/09/26 04:15:47;;;;;;;1.7;1.35;;;;;;;13.18;98.77441;94913.97;;;;
2019/09/26 04:16:51;;;;;;;1.7;1.35;;;;;;;13.18;98.77441;94913.97;;;;
2019/09/26 04:17:52;;;;;;;1.7;1.35;;;;;;;13.18;98.77441;94913.97;;;;
2019/09/26 04:18:53;;;;;;;1.7;1.35;;;;;;;13.18;98.77441;94913.97;;;;
2019/09/26 04:19:54;;;;;;;1.7;1.35;;;;;;;13.18;98.77441;94913.97;;;;
2019/09/26 04:20:55;;;;;;;1.7;1.35;;;;;;;13.18;98.77441;94913.97;;;;
2019/09/26 04:21:56;;;;;;;1.7;1.35;;;;;;;13.18;98.77441;94913.97;;;;
2019/09/26 04:22:57;;;;;;;1.7;1.35;;;;;;;13.18;98.77441;94913.97;;;;
2019/09/26 04:23:58;;;;;;;1.7;1.35;;;;;;;13.18;98.77441;94913.97;;;;
2019/09/26 04:25:00;;;;;;;1.7;1.35;;;;;;;13.18;98.77441;94913.97;;;;
2019/09/26 04:26:01;;;;;;;2.1;1.4;;;;;;;13.06;98.67188;94905.75;;;;
2019/09/26 04:27:03;;;;;;;2.1;1.4;;;;;;;13.06;98.67188;94905.75;;;;
2019/09/26 04:28:04;;;;;;;2.1;1.4;;;;;;;13.06;98.67188;94905.75;;;;
2019/09/26 04:29:05;;;;;;;2.1;1.4;;;;;;;13.06;98.67188;94905.75;;;;
2019/09/26 04:30:07;;;;;;;2.1;1.4;;;;;;;13.06;98.67188;94905.75;;;;
2019/09/26 04:31:09;;;;;;;2.1;1.4;;;;;;;13.06;98.67188;94905.75;;;;
2019/09/26 04:32:10;;;;;;;2.1;1.4;;;;;;;13.06;98.67188;94905.75;;;;
2019/09/26 04:33:12;;;;;;;2.1;1.4;;;;;;;13.06;98.67188;94905.75;;;;
2019/09/26 04:34:13;;;;;;;2.1;1.4;;;;;;;13.06;98.67188;94905.75;;;;
2019/09/26 04:35:15;;;;;;;2.1;1.4;;;;;;;13.06;98.67188;94905.75;;;;
2019/09/26 04:36:26;;;;;;;4.35;1.5;;;;;;;12.84;98.68555;94913.12;;;;
2019/09/26 04:37:27;;;;;;;4.35;1.5;;;;;;;12.84;98.68555;94913.12;;;;
2019/09/26 04:38:28;;;;;;;4.35;1.5;;;;;;;12.84;98.68555;94913.12;;;;
2019/09/26 04:39:29;;;;;;;4.35;1.5;;;;;;;12.84;98.68555;94913.12;;;;
2019/09/26 04:40:31;;;;;;;4.35;1.5;;;;;;;12.84;98.68555;94913.12;;;;
2019/09/26 04:41:32;;;;;;;4.35;1.5;;;;;;;12.84;98.68555;94913.12;;;;
2019/09/26 04:42:34;;;;;;;4.35;1.5;;;;;;;12.84;98.68555;94913.12;;;;
2019/09/26 04:43:35;;;;;;;4.35;1.5;;;;;;;12.84;98.68555;94913.12;;;;
2019/09/26 04:44:36;;;;;;;4.35;1.5;;;;;;;12.84;98.68555;94913.12;;;;
2019/09/26 04:45:37;;;;;;;4.35;1.5;;;;;;;12.84;98.68555;94913.12;;;;
2019/09/26 04:46:46;;;;;;;2.7;1.5;;;;;;;12.42;98.85938;94921.55;;;;
2019/09/26 04:47:47;;;;;;;2.7;1.5;;;;;;;12.42;98.85938;94921.55;;;;
2019/09/26 04:48:48;;;;;;;2.7;1.5;;;;;;;12.42;98.85938;94921.55;;;;
2019/09/26 04:49:49;;;;;;;2.7;1.5;;;;;;;12.42;98.85938;94921.55;;;;
2019/09/26 04:50:50;;;;;;;2.7;1.5;;;;;;;12.42;98.85938;94921.55;;;;
2019/09/26 04:51:52;;;;;;;2.7;1.5;;;;;;;12.42;98.85938;94921.55;;;;
2019/09/26 04:52:53;;;;;;;2.7;1.5;;;;;;;12.42;98.85938;94921.55;;;;
2019/09/26 04:53:54;;;;;;;2.7;1.5;;;;;;;12.42;98.85938;94921.55;;;;
2019/09/26 04:54:55;;;;;;;2.7;1.5;;;;;;;12.42;98.85938;94921.55;;;;
2019/09/26 04:55:57;;;;;;;2.7;1.5;;;;;;;12.42;98.85938;94921.55;;;;
2019/09/26 04:57:00;;;;;;;2.7;1.5;;;;;;;12.42;98.85938;94921.55;;;;
2019/09/26 04:58:01;;;;;;;2.95;1.6;;;;;;;12.14;99.22266;94928.16;;;;
2019/09/26 04:59:03;;;;;;;2.95;1.6;;;;;;;12.14;99.22266;94928.16;;;;
2019/09/26 05:00:04;;;;;;;2.95;1.6;;;;;;;12.14;99.22266;94928.16;;;;
2019/09/26 05:01:07;;;;;;;2.95;1.6;;;;;;;12.14;99.22266;94928.16;;;;
2019/09/26 05:02:19;;;;;;;2.95;1.6;;;;;;;12.14;99.22266;94928.16;;;;
2019/09/26 05:03:20;;;;;;;2.95;1.6;;;;;;;12.14;99.22266;94928.16;;;;
2019/09/26 05:04:21;;;;;;;2.95;1.6;;;;;;;12.14;99.22266;94928.16;;;;
2019/09/26 05:05:22;;;;;;;2.95;1.6;;;;;;;12.14;99.22266;94928.16;;;;
2019/09/26 05:06:36;;;;;;;2.95;1.6;;;;;;;12.14;99.22266;94928.16;;;;
2019/09/26 05:07:40;;;;;;;2.95;1.6;;;;;;;12.14;99.22266;94928.16;;;;
2019/09/26 05:08:41;;;;;;;3;1.7;;;;;;;11.88;99.50586;94945.04;;;;
2019/09/26 05:09:42;;;;;;;3;1.7;;;;;;;11.88;99.50586;94945.04;;;;
2019/09/26 05:10:43;;;;;;;3;1.7;;;;;;;11.88;99.50586;94945.04;;;;
2019/09/26 05:11:44;;;;;;;3;1.7;;;;;;;11.88;99.50586;94945.04;;;;
2019/09/26 05:12:46;;;;;;;3;1.7;;;;;;;11.88;99.50586;94945.04;;;;
2019/09/26 05:13:47;;;;;;;3;1.7;;;;;;;11.88;99.50586;94945.04;;;;
2019/09/26 05:14:48;;;;;;;3;1.7;;;;;;;11.88;99.50586;94945.04;;;;
2019/09/26 05:15:50;;;;;;;3;1.7;;;;;;;11.88;99.50586;94945.04;;;;
2019/09/26 05:16:51;;;;;;;3;1.7;;;;;;;11.88;99.50586;94945.04;;;;
2019/09/26 05:17:52;;;;;;;3;1.7;;;;;;;11.88;99.50586;94945.04;;;;
2019/09/26 05:18:53;;;;;;;2.4;1.7;;;;;;;11.7;99.86816;94953.99;;;;
2019/09/26 05:19:54;;;;;;;2.4;1.7;;;;;;;11.7;99.86816;94953.99;;;;
2019/09/26 05:20:55;;;;;;;2.4;1.7;;;;;;;11.7;99.86816;94953.99;;;;
2019/09/26 05:21:56;;;;;;;2.4;1.7;;;;;;;11.7;99.86816;94953.99;;;;
2019/09/26 05:22:57;;;;;;;2.4;1.7;;;;;;;11.7;99.86816;94953.99;;;;
2019/09/26 05:23:59;;;;;;;2.4;1.7;;;;;;;11.7;99.86816;94953.99;;;;
2019/09/26 05:25:00;;;;;;;2.4;1.7;;;;;;;11.7;99.86816;94953.99;;;;
2019/09/26 05:26:01;;;;;;;2.4;1.7;;;;;;;11.7;99.86816;94953.99;;;;
2019/09/26 05:27:03;;;;;;;2.4;1.7;;;;;;;11.7;99.86816;94953.99;;;;
2019/09/26 05:28:04;;;;;;;2.4;1.7;;;;;;;11.7;99.86816;94953.99;;;;
2019/09/26 05:29:07;;;;;;;1.6;1.5;;;;;;;11.5;100;94954.92;;;;
2019/09/26 05:30:08;;;;;;;1.6;1.5;;;;;;;11.5;100;94954.92;;;;
2019/09/26 05:31:10;;;;;;;1.6;1.5;;;;;;;11.5;100;94954.92;;;;
2019/09/26 05:32:11;;;;;;;1.6;1.5;;;;;;;11.5;100;94954.92;;;;
2019/09/26 05:33:12;;;;;;;1.6;1.5;;;;;;;11.5;100;94954.92;;;;
2019/09/26 05:34:13;;;;;;;1.6;1.5;;;;;;;11.5;100;94954.92;;;;
2019/09/26 05:35:14;;;;;;;1.6;1.5;;;;;;;11.5;100;94954.92;;;;
2019/09/26 05:36:38;;;;;;;1.6;1.5;;;;;;;11.5;100;94954.92;;;;
2019/09/26 05:37:40;;;;;;;1.6;1.5;;;;;;;11.5;100;94954.92;;;;
2019/09/26 05:38:41;;;;;;;1.6;1.5;;;;;;;11.5;100;94954.92;;;;
2019/09/26 05:39:42;;;;;;;1.6;1.5;;;;;;;11.5;100;94954.92;;;;
2019/09/26 05:40:43;;;;;;;2.8;1.85;;;;;;;11.45;100;94960.38;;;;
2019/09/26 05:41:44;;;;;;;2.8;1.85;;;;;;;11.45;100;94960.38;;;;
2019/09/26 05:42:46;;;;;;;2.8;1.85;;;;;;;11.45;100;94960.38;;;;
2019/09/26 05:43:47;;;;;;;2.8;1.85;;;;;;;11.45;100;94960.38;;;;
2019/09/26 05:44:48;;;;;;;2.8;1.85;;;;;;;11.45;100;94960.38;;;;
2019/09/26 05:45:49;;;;;;;2.8;1.85;;;;;;;11.45;100;94960.38;;;;
2019/09/26 05:46:53;;;;;;;2.8;1.85;;;;;;;11.45;100;94960.38;;;;
2019/09/26 05:47:54;;;;;;;2.8;1.85;;;;;;;11.45;100;94960.38;;;;
2019/09/26 05:48:56;;;;;;;2.8;1.85;;;;;;;11.45;100;94960.38;;;;
2019/09/26 05:49:57;;;;;;;2.8;1.85;;;;;;;11.45;100;94960.38;;;;
2019/09/26 05:50:58;;;;;;;3.4;2.45;;;;;;;11.45;100;94968.89;;;;
2019/09/26 05:52:06;;;;;;;3.4;2.45;;;;;;;11.45;100;94968.89;;;;
2019/09/26 05:53:07;;;;;;;3.4;2.45;;;;;;;11.45;100;94968.89;;;;
2019/09/26 05:54:09;;;;;;;3.4;2.45;;;;;;;11.45;100;94968.89;;;;
2019/09/26 05:55:10;;;;;;;3.4;2.45;;;;;;;11.45;100;94968.89;;;;
2019/09/26 05:56:12;;;;;;;3.4;2.45;;;;;;;11.45;100;94968.89;;;;
2019/09/26 05:57:13;;;;;;;3.4;2.45;;;;;;;11.45;100;94968.89;;;;
2019/09/26 05:58:14;;;;;;;3.4;2.45;;;;;;;11.45;100;94968.89;;;;
2019/09/26 05:59:16;;;;;;;3.4;2.45;;;;;;;11.45;100;94968.89;;;;
2019/09/26 06:00:17;;;;;;;3.4;2.45;;;;;;;11.45;100;94968.89;;;;
2019/09/26 06:01:19;;;;;;;2.75;2.2;;;;;;;11.64;100;94968.5;;;;
2019/09/26 06:02:20;;;;;;;2.75;2.2;;;;;;;11.64;100;94968.5;;;;